Terminal Aerodrome Forecast
Issued by NWS

Home | Current Version | Previous Version | Text Only | Print | Product List | Glossary On
Versions: 1 2 3 4 5 6 7 8 9 10 11 12 13 14
000
FTAK31 PAJN 220300 AAA
TAFAWG
TAF AMD
PAWG 220311Z 2203/2224 14007KT P6SM VCSH BKN045 OVC100
     FM220500 14006KT 5SM -SHRA BCFG SCT025 OVC040
     FM221900 14006KT P6SM VCSH SCT020 OVC040
      AMD LTD TO CLD VIS AND WIND 2206/2215=

USA.gov is the U.S. government's official web portal to all federal, state and local government web resources and services.